Time;durP1;ratioP1;P1;durP2;ratioP2;P2;SDS_P1;SDS_P2;PMS_P1;PMS_P2;Temp;Humidity;BMP_temperature;BMP_pressure;BME280_temperature;BME280_humidity;BME280_pressure;Samples;Min_cycle;Max_cycle;Signal;HPM_P1;HPM_P2
2023/11/04 05:30:57;;;;;;;0.00;0.00;;;11.50;92.60;;;;;;5736563;22;20146;-82
2023/11/04 05:33:22;;;;;;;0.03;0.03;;;11.50;92.70;;;;;;4969096;28;20073;-85
2023/11/04 05:35:48;;;;;;;0.10;0.10;;;11.60;92.60;;;;;;4963270;28;20038;-83
2023/11/04 05:38:14;;;;;;;0.10;0.10;;;11.60;92.50;;;;;;4976923;28;20038;-83
2023/11/04 05:40:39;;;;;;;0.10;0.10;;;11.70;92.50;;;;;;4976941;28;20110;-83
2023/11/04 05:43:05;;;;;;;0.10;0.10;;;11.70;92.40;;;;;;4960294;28;20034;-83
2023/11/04 05:45:31;;;;;;;0.10;0.10;;;11.80;92.30;;;;;;4977718;28;20051;-82
2023/11/04 05:47:56;;;;;;;0.08;0.08;;;11.80;92.30;;;;;;4959617;28;20034;-83
2023/11/04 05:50:22;;;;;;;0.10;0.10;;;11.80;92.30;;;;;;4977565;28;20030;-83
2023/11/04 05:52:48;;;;;;;0.10;0.10;;;11.80;92.30;;;;;;4977360;28;20022;-83
2023/11/04 05:55:14;;;;;;;0.00;0.00;;;11.80;92.20;;;;;;4960231;28;20039;-81
2023/11/04 05:57:40;;;;;;;0.10;0.10;;;11.90;92.10;;;;;;4956290;29;20556;-82
2023/11/04 06:00:11;;;;;;;0.10;0.10;;;11.90;92.10;;;;;;4941203;29;20098;-83
2023/11/04 06:02:38;;;;;;;0.10;0.10;;;11.90;92.10;;;;;;4957288;28;20127;-83
2023/11/04 06:05:05;;;;;;;0.10;0.10;;;11.90;92.10;;;;;;4972198;28;20102;-83
2023/11/04 06:07:32;;;;;;;0.10;0.10;;;11.90;92.00;;;;;;4979388;28;20058;-83
2023/11/04 06:09:57;;;;;;;0.10;0.10;;;11.90;91.90;;;;;;4977274;28;20081;-82
2023/11/04 06:12:23;;;;;;;0.10;0.10;;;11.80;91.90;;;;;;4977126;28;20026;-83
2023/11/04 06:14:49;;;;;;;0.10;0.10;;;11.80;92.00;;;;;;4958388;29;20030;-82
2023/11/04 06:17:14;;;;;;;0.00;0.00;;;11.80;92.10;;;;;;4968609;28;20037;-83
2023/11/04 06:19:40;;;;;;;0.10;0.10;;;11.80;92.20;;;;;;4977338;28;20481;-83
2023/11/04 06:22:06;;;;;;;0.10;0.10;;;11.80;92.20;;;;;;4980159;28;20061;-83
2023/11/04 06:24:31;;;;;;;0.10;0.10;;;11.80;92.20;;;;;;4980959;28;20039;-83
2023/11/04 06:26:57;;;;;;;0.05;0.05;;;11.90;92.10;;;;;;4980788;28;20031;-83
2023/11/04 06:29:22;;;;;;;0.10;0.10;;;11.90;92.10;;;;;;4965328;28;20438;-82
2023/11/04 06:31:48;;;;;;;0.10;0.10;;;11.90;92.10;;;;;;4963132;28;20414;-83
2023/11/04 06:34:14;;;;;;;0.10;0.10;;;11.90;92.10;;;;;;4980092;28;20129;-83
2023/11/04 06:36:40;;;;;;;0.10;0.10;;;12.00;92.10;;;;;;4982579;28;20495;-83
2023/11/04 06:39:06;;;;;;;0.10;0.10;;;12.00;92.10;;;;;;5000100;28;20084;-83
2023/11/04 06:41:32;;;;;;;0.10;0.10;;;12.00;92.10;;;;;;4966313;28;20490;-84
2023/11/04 06:43:57;;;;;;;0.10;0.10;;;12.10;92.00;;;;;;4979965;28;20031;-83
2023/11/04 06:46:24;;;;;;;0.00;0.00;;;12.10;92.00;;;;;;4963340;28;20470;-83
2023/11/04 06:48:51;;;;;;;0.10;0.10;;;12.20;91.90;;;;;;4977955;28;20080;-83
2023/11/04 06:51:21;;;;;;;0.00;0.00;;;12.20;91.80;;;;;;4963572;28;20015;-83
2023/11/04 06:53:47;;;;;;;0.10;0.10;;;12.20;91.80;;;;;;4961707;28;20381;-83
2023/11/04 06:56:13;;;;;;;0.10;0.10;;;12.20;91.80;;;;;;4943673;29;20034;-83
2023/11/04 06:58:39;;;;;;;0.10;0.10;;;12.30;91.80;;;;;;4944233;29;20397;-83
2023/11/04 07:01:05;;;;;;;0.10;0.10;;;12.30;91.80;;;;;;4960780;29;20045;-83
2023/11/04 07:03:31;;;;;;;0.20;0.20;;;12.30;91.80;;;;;;4961889;28;20482;-83
2023/11/04 07:05:57;;;;;;;0.10;0.10;;;12.30;91.80;;;;;;4993970;28;20066;-83
2023/11/04 07:08:23;;;;;;;0.10;0.10;;;12.30;91.70;;;;;;4999298;28;20023;-83
2023/11/04 07:10:50;;;;;;;0.20;0.20;;;12.30;91.70;;;;;;4982340;28;20109;-82
2023/11/04 07:13:16;;;;;;;0.10;0.10;;;12.30;91.60;;;;;;4967302;28;20031;-83
2023/11/04 07:15:45;;;;;;;0.10;0.10;;;12.30;91.50;;;;;;4960656;29;20545;-83
2023/11/04 07:18:12;;;;;;;0.10;0.10;;;12.30;91.40;;;;;;4962187;28;20033;-83
2023/11/04 07:20:39;;;;;;;0.20;0.10;;;12.30;91.20;;;;;;4979814;28;20030;-83
2023/11/04 07:23:07;;;;;;;0.10;0.10;;;12.30;91.00;;;;;;4979978;28;20080;-83
2023/11/04 07:25:35;;;;;;;0.10;0.10;;;12.20;90.90;;;;;;4961725;28;20042;-79
2023/11/04 07:28:00;;;;;;;0.10;0.10;;;12.20;90.80;;;;;;4975186;28;20107;-81
2023/11/04 07:30:26;;;;;;;0.20;0.20;;;12.20;90.80;;;;;;4964351;28;20530;-81
2023/11/04 07:32:53;;;;;;;0.10;0.10;;;12.20;90.70;;;;;;4962244;28;20086;-82
2023/11/04 07:35:18;;;;;;;0.20;0.20;;;12.20;90.50;;;;;;4972821;28;20019;-79
2023/11/04 07:37:44;;;;;;;0.13;0.13;;;12.30;90.70;;;;;;4968620;28;20031;-80
2023/11/04 07:40:10;;;;;;;0.10;0.10;;;12.20;90.50;;;;;;4954011;28;20038;-80
2023/11/04 07:42:36;;;;;;;0.20;0.20;;;12.20;90.50;;;;;;4971016;28;20032;-82
2023/11/04 07:45:02;;;;;;;0.17;0.17;;;12.30;90.30;;;;;;4956598;28;20026;-79
2023/11/04 07:47:28;;;;;;;0.10;0.10;;;12.30;90.20;;;;;;4979074;28;20031;-80
2023/11/04 07:49:54;;;;;;;0.20;0.20;;;12.40;90.00;;;;;;4956047;28;20067;-81
2023/11/04 07:52:19;;;;;;;0.20;0.20;;;12.60;89.90;;;;;;4964802;28;20027;-84
2023/11/04 07:54:45;;;;;;;0.10;0.10;;;12.70;89.80;;;;;;4956332;29;20027;-89
2023/11/04 07:57:10;;;;;;;0.10;0.10;;;12.70;89.50;;;;;;4967694;28;20459;-89
2023/11/04 07:59:37;;;;;;;0.20;0.20;;;12.70;89.40;;;;;;4959864;29;20087;-83
2023/11/04 08:02:03;;;;;;;0.20;0.20;;;12.70;89.30;;;;;;4959904;28;20027;-89
2023/11/04 08:04:29;;;;;;;0.10;0.10;;;12.70;89.30;;;;;;4946531;28;20039;-86
2023/11/04 08:06:55;;;;;;;0.25;0.20;;;12.60;89.30;;;;;;4981172;28;20076;-90
2023/11/04 08:09:21;;;;;;;0.10;0.10;;;12.60;89.20;;;;;;4965572;28;20445;-87
2023/11/04 08:11:46;;;;;;;0.10;0.10;;;12.60;89.20;;;;;;4965989;28;20028;-84
2023/11/04 08:14:12;;;;;;;0.10;0.10;;;12.50;89.20;;;;;;4944128;28;20039;-85
2023/11/04 08:16:38;;;;;;;0.10;0.10;;;12.50;89.00;;;;;;4967256;28;20057;-81
2023/11/04 08:19:05;;;;;;;0.10;0.10;;;12.40;88.80;;;;;;4977347;28;20065;-80
2023/11/04 08:21:32;;;;;;;0.13;0.13;;;12.40;89.10;;;;;;4955458;28;20027;-80
2023/11/04 08:23:58;;;;;;;0.10;0.10;;;12.40;89.00;;;;;;4965310;28;20027;-80
2023/11/04 08:26:24;;;;;;;0.15;0.15;;;12.40;89.10;;;;;;4949126;28;20112;-80
2023/11/04 08:28:51;;;;;;;0.10;0.10;;;12.50;89.30;;;;;;4955821;28;20090;-81
2023/11/04 08:31:17;;;;;;;0.20;0.10;;;12.70;89.10;;;;;;4970894;28;20568;-80
2023/11/04 08:33:43;;;;;;;0.20;0.20;;;12.70;88.70;;;;;;4954839;28;20081;-80
2023/11/04 08:36:09;;;;;;;0.20;0.20;;;12.80;88.60;;;;;;4976007;28;20034;-80
2023/11/04 08:38:36;;;;;;;0.20;0.20;;;12.80;88.70;;;;;;4993413;28;20041;-81
2023/11/04 08:41:02;;;;;;;0.20;0.20;;;12.80;88.40;;;;;;4979772;28;20118;-80
2023/11/04 08:43:28;;;;;;;0.20;0.20;;;12.80;88.30;;;;;;4960589;28;20062;-79
2023/11/04 08:45:53;;;;;;;0.20;0.20;;;12.80;88.30;;;;;;4957243;28;20070;-83
2023/11/04 08:48:19;;;;;;;0.20;0.20;;;12.90;88.40;;;;;;4959705;28;20026;-76
2023/11/04 08:50:44;;;;;;;0.20;0.20;;;12.90;88.40;;;;;;4966249;28;20030;-79
2023/11/04 08:53:10;;;;;;;0.10;0.10;;;12.90;88.30;;;;;;4966323;28;20045;-79
2023/11/04 08:55:36;;;;;;;0.20;0.20;;;13.00;88.30;;;;;;4954247;28;20081;-79
2023/11/04 08:58:01;;;;;;;0.20;0.20;;;13.10;87.90;;;;;;4967178;28;20090;-81
2023/11/04 09:00:28;;;;;;;0.10;0.10;;;13.10;88.00;;;;;;4958417;28;20042;-83
2023/11/04 09:02:53;;;;;;;0.20;0.20;;;13.00;87.80;;;;;;4951298;28;20098;-84
2023/11/04 09:05:19;;;;;;;0.20;0.20;;;12.90;87.90;;;;;;4970243;28;20513;-82
2023/11/04 09:07:44;;;;;;;0.22;0.20;;;12.90;87.60;;;;;;4946342;28;20038;-80
2023/11/04 09:10:10;;;;;;;0.20;0.20;;;12.80;87.70;;;;;;4949137;28;20086;-80
2023/11/04 09:12:36;;;;;;;0.30;0.20;;;12.90;87.70;;;;;;4966962;28;20728;-79
2023/11/04 09:15:02;;;;;;;0.20;0.20;;;13.00;87.80;;;;;;4962138;28;20826;-79
2023/11/04 09:17:27;;;;;;;0.20;0.20;;;13.20;87.70;;;;;;4954755;28;20078;-79
2023/11/04 09:19:53;;;;;;;0.20;0.20;;;13.30;87.10;;;;;;4967902;28;20031;-79
2023/11/04 09:22:20;;;;;;;0.20;0.20;;;13.30;86.90;;;;;;4967049;28;20027;-79
2023/11/04 09:24:45;;;;;;;0.10;0.10;;;13.30;87.00;;;;;;4968951;28;20019;-80
2023/11/04 09:27:11;;;;;;;0.20;0.20;;;13.20;86.90;;;;;;4964444;28;20375;-79
2023/11/04 09:29:37;;;;;;;0.20;0.20;;;13.20;87.10;;;;;;4953568;28;20037;-79
2023/11/04 09:32:03;;;;;;;0.10;0.10;;;13.20;87.10;;;;;;4947683;28;20122;-79
2023/11/04 09:34:28;;;;;;;0.17;0.17;;;13.30;87.00;;;;;;4970522;28;20103;-79
2023/11/04 09:36:54;;;;;;;0.10;0.10;;;13.30;87.00;;;;;;4956184;29;20038;-80
2023/11/04 09:39:19;;;;;;;0.17;0.17;;;13.40;86.80;;;;;;4940345;28;20032;-79
2023/11/04 09:41:45;;;;;;;0.20;0.10;;;13.50;86.80;;;;;;4942637;28;20063;-80
2023/11/04 09:44:11;;;;;;;0.10;0.10;;;13.60;86.50;;;;;;4954650;28;20023;-79
2023/11/04 09:46:37;;;;;;;0.20;0.20;;;13.80;86.60;;;;;;4955062;29;20047;-79
2023/11/04 09:49:03;;;;;;;0.10;0.10;;;14.20;86.20;;;;;;4941756;28;20035;-79
2023/11/04 09:51:29;;;;;;;0.10;0.10;;;14.40;85.00;;;;;;4942438;28;20085;-79
2023/11/04 09:53:59;;;;;;;0.10;0.10;;;14.30;84.40;;;;;;4945216;28;20107;-79
2023/11/04 09:56:24;;;;;;;0.20;0.20;;;14.30;83.80;;;;;;4945139;29;20390;-80
2023/11/04 09:58:50;;;;;;;0.20;0.20;;;14.30;83.50;;;;;;4950934;29;20024;-79
2023/11/04 10:01:18;;;;;;;0.10;0.10;;;14.60;81.50;;;;;;4951868;28;20039;-79
2023/11/04 10:03:47;;;;;;;0.10;0.10;;;14.60;81.20;;;;;;4970312;28;20393;-80
2023/11/04 10:06:17;;;;;;;0.20;0.20;;;14.50;81.60;;;;;;4955645;28;20031;-83
2023/11/04 10:08:43;;;;;;;0.10;0.10;;;14.30;78.20;;;;;;4952248;29;20059;-76
2023/11/04 10:11:09;;;;;;;0.10;0.10;;;14.20;79.20;;;;;;4952029;28;20027;-80
2023/11/04 10:13:35;;;;;;;0.10;0.10;;;13.90;79.70;;;;;;4946579;29;20024;-80
2023/11/04 10:16:03;;;;;;;0.10;0.10;;;13.80;80.00;;;;;;4945664;28;20031;-80
2023/11/04 10:18:29;;;;;;;0.10;0.10;;;13.70;79.90;;;;;;4940932;28;20104;-80
2023/11/04 10:20:55;;;;;;;0.10;0.10;;;13.60;80.30;;;;;;4942272;29;20118;-79
2023/11/04 10:23:21;;;;;;;0.10;0.10;;;13.50;81.40;;;;;;4943952;29;20024;-80
2023/11/04 10:25:46;;;;;;;0.10;0.10;;;13.50;80.90;;;;;;4958385;29;20035;-79
2023/11/04 10:28:12;;;;;;;0.10;0.10;;;13.60;80.50;;;;;;4952735;28;20505;-79
2023/11/04 10:30:38;;;;;;;0.10;0.10;;;13.60;81.10;;;;;;4960892;28;20494;-80
2023/11/04 10:33:07;;;;;;;0.03;0.03;;;13.60;81.20;;;;;;4971473;28;20023;-79
2023/11/04 10:35:34;;;;;;;0.10;0.10;;;13.50;79.80;;;;;;4972493;28;20031;-80
2023/11/04 10:38:07;;;;;;;0.10;0.10;;;13.50;80.80;;;;;;4963193;28;20030;-89
2023/11/04 10:40:34;;;;;;;0.10;0.10;;;13.60;80.60;;;;;;4943883;28;20035;-82
2023/11/04 10:43:08;;;;;;;0.10;0.10;;;13.60;79.20;;;;;;4959508;29;20036;-80
2023/11/04 10:45:56;;;;;;;0.10;0.10;;;13.70;80.00;;;;;;4960216;29;20036;-89
2023/11/04 10:48:43;;;;;;;0.10;0.10;;;13.70;79.20;;;;;;4961293;28;20069;-87
2023/11/04 10:51:22;;;;;;;0.10;0.10;;;13.70;79.90;;;;;;4958784;28;20390;-83
2023/11/04 10:54:10;;;;;;;0.10;0.10;;;13.50;79.30;;;;;;4943621;29;20104;-85
2023/11/04 10:57:13;;;;;;;0.13;0.13;;;13.40;80.50;;;;;;4960900;29;20494;-85
2023/11/04 10:59:49;;;;;;;0.10;0.10;;;13.50;80.60;;;;;;4977471;28;20378;-81
2023/11/04 11:02:15;;;;;;;0.10;0.10;;;13.60;80.30;;;;;;4974325;28;20049;-81
2023/11/04 11:04:43;;;;;;;0.10;0.10;;;13.70;80.40;;;;;;4983367;28;20444;-79
2023/11/04 11:07:15;;;;;;;0.10;0.10;;;13.70;80.30;;;;;;4981409;28;20588;-80
2023/11/04 11:09:41;;;;;;;0.10;0.10;;;13.60;79.50;;;;;;4977046;28;20034;-80
2023/11/04 11:12:16;;;;;;;0.10;0.10;;;13.40;80.20;;;;;;4971538;28;20019;-82
2023/11/04 11:14:42;;;;;;;0.10;0.10;;;13.40;80.10;;;;;;4961748;28;20560;-89
2023/11/04 11:17:08;;;;;;;0.10;0.10;;;13.40;79.90;;;;;;4956254;28;20030;-80
2023/11/04 11:19:44;;;;;;;0.10;0.10;;;13.40;79.90;;;;;;4973370;28;20117;-84
2023/11/04 11:22:23;;;;;;;0.10;0.10;;;13.30;80.40;;;;;;4973560;28;20089;-84
2023/11/04 11:24:55;;;;;;;0.10;0.10;;;13.30;80.70;;;;;;4947332;28;20023;-86
2023/11/04 11:27:21;;;;;;;0.10;0.10;;;13.20;81.20;;;;;;4959067;28;20023;-87
2023/11/04 11:29:47;;;;;;;0.10;0.10;;;13.10;81.80;;;;;;4960126;29;20656;-86
2023/11/04 11:32:13;;;;;;;0.10;0.10;;;13.10;82.10;;;;;;4961496;28;20058;-84
2023/11/04 11:34:50;;;;;;;0.10;0.10;;;12.90;81.60;;;;;;4962354;28;20026;-86
2023/11/04 11:37:23;;;;;;;0.10;0.10;;;12.90;82.30;;;;;;4960301;28;20135;-84
2023/11/04 11:39:49;;;;;;;0.10;0.10;;;12.90;83.00;;;;;;4961257;28;20494;-84
2023/11/04 11:42:15;;;;;;;0.10;0.10;;;13.00;83.30;;;;;;4979209;28;20524;-85
2023/11/04 11:44:42;;;;;;;0.10;0.10;;;13.20;83.80;;;;;;4978890;28;20034;-84
2023/11/04 11:47:08;;;;;;;0.10;0.10;;;13.30;83.80;;;;;;4963169;28;20569;-85
2023/11/04 11:49:34;;;;;;;0.10;0.10;;;13.30;84.00;;;;;;4944347;28;20399;-85
2023/11/04 11:52:00;;;;;;;0.10;0.10;;;13.20;84.30;;;;;;4960295;28;20031;-85
2023/11/04 11:54:29;;;;;;;0.10;0.10;;;12.60;81.40;;;;;;4979289;28;20030;-84
2023/11/04 11:56:55;;;;;;;0.10;0.10;;;12.30;81.50;;;;;;4979252;28;20078;-86
2023/11/04 11:59:21;;;;;;;0.08;0.08;;;12.00;82.40;;;;;;4976068;28;20035;-84
2023/11/04 12:01:47;;;;;;;0.10;0.10;;;12.00;83.20;;;;;;4960538;29;20023;-85
2023/11/04 12:04:12;;;;;;;0.10;0.10;;;12.00;83.10;;;;;;4959685;29;20035;-85
2023/11/04 12:06:40;;;;;;;0.10;0.10;;;12.20;83.70;;;;;;4990039;28;20034;-84
2023/11/04 12:09:07;;;;;;;0.10;0.10;;;12.50;82.90;;;;;;4962056;28;20034;-84
2023/11/04 12:11:33;;;;;;;0.10;0.10;;;12.70;83.00;;;;;;4972010;28;20042;-85
2023/11/04 12:14:00;;;;;;;0.10;0.10;;;12.80;82.80;;;;;;4961487;28;20450;-85
2023/11/04 12:16:26;;;;;;;0.10;0.10;;;13.00;83.00;;;;;;4964023;28;20023;-84
2023/11/04 12:18:52;;;;;;;0.10;0.10;;;13.10;83.00;;;;;;4960633;28;20081;-84
2023/11/04 12:21:18;;;;;;;0.10;0.10;;;13.20;83.10;;;;;;4955403;28;20648;-84
2023/11/04 12:23:45;;;;;;;0.10;0.10;;;13.30;83.40;;;;;;4960701;28;20129;-84
2023/11/04 12:26:12;;;;;;;0.10;0.10;;;13.50;83.20;;;;;;4978675;28;20109;-83
2023/11/04 12:28:39;;;;;;;0.10;0.10;;;13.50;83.10;;;;;;4967142;28;20066;-84
2023/11/04 12:31:06;;;;;;;0.10;0.10;;;13.60;82.60;;;;;;4944446;29;20422;-86
2023/11/04 12:33:34;;;;;;;0.10;0.10;;;13.60;82.20;;;;;;4934692;28;20031;-84
2023/11/04 12:36:09;;;;;;;0.10;0.10;;;13.60;81.80;;;;;;4968361;28;20027;-82
2023/11/04 12:38:36;;;;;;;0.08;0.08;;;13.80;81.30;;;;;;4957814;28;20024;-85
2023/11/04 12:41:02;;;;;;;0.10;0.10;;;13.70;80.70;;;;;;4950276;28;20030;-82
2023/11/04 12:43:28;;;;;;;0.10;0.10;;;13.70;80.10;;;;;;4948032;28;20027;-84
2023/11/04 12:45:58;;;;;;;0.10;0.10;;;13.70;80.80;;;;;;4960453;28;20075;-85
2023/11/04 12:48:24;;;;;;;0.10;0.10;;;13.70;81.00;;;;;;4943813;28;20039;-85
2023/11/04 12:50:51;;;;;;;0.10;0.10;;;13.80;81.00;;;;;;4946172;28;20042;-83
2023/11/04 12:53:18;;;;;;;0.10;0.10;;;13.80;80.80;;;;;;4944632;29;20035;-84
2023/11/04 12:55:47;;;;;;;0.10;0.10;;;13.90;80.70;;;;;;4944408;28;20023;-86
2023/11/04 12:58:12;;;;;;;0.10;0.10;;;14.00;80.70;;;;;;4947506;29;20031;-84
2023/11/04 13:00:39;;;;;;;0.10;0.10;;;13.90;79.90;;;;;;4950491;28;20030;-83
2023/11/04 13:03:04;;;;;;;0.10;0.10;;;13.70;79.00;;;;;;4944384;28;20042;-85
2023/11/04 13:05:30;;;;;;;0.10;0.10;;;13.70;79.70;;;;;;4947777;29;20118;-84
2023/11/04 13:07:56;;;;;;;0.10;0.10;;;13.80;78.80;;;;;;4945698;28;20572;-85
2023/11/04 13:10:22;;;;;;;0.10;0.10;;;13.80;79.30;;;;;;4944575;29;20030;-84
2023/11/04 13:12:49;;;;;;;0.10;0.10;;;13.90;79.90;;;;;;4945022;29;20027;-85
2023/11/04 13:15:16;;;;;;;0.10;0.10;;;13.80;79.70;;;;;;4951408;28;20031;-84
2023/11/04 13:17:42;;;;;;;0.10;0.10;;;13.80;79.10;;;;;;4946297;28;20024;-84
2023/11/04 13:20:09;;;;;;;0.10;0.10;;;13.80;79.10;;;;;;4942313;28;20034;-84
2023/11/04 13:22:34;;;;;;;0.10;0.10;;;13.80;78.80;;;;;;4948372;28;20059;-86
2023/11/04 13:25:02;;;;;;;0.10;0.10;;;13.90;79.80;;;;;;4943944;29;20035;-86
2023/11/04 13:27:28;;;;;;;0.13;0.13;;;14.00;80.70;;;;;;4943945;28;20019;-85
2023/11/04 13:29:55;;;;;;;0.20;0.20;;;14.20;80.10;;;;;;4951059;28;20517;-83
2023/11/04 13:32:24;;;;;;;0.10;0.10;;;14.00;79.40;;;;;;4946288;28;20405;-85
2023/11/04 13:34:50;;;;;;;0.10;0.10;;;13.90;79.60;;;;;;4941390;29;20020;-87
2023/11/04 13:37:16;;;;;;;0.15;0.15;;;13.80;79.20;;;;;;4943248;29;20450;-86
2023/11/04 13:39:43;;;;;;;0.10;0.10;;;13.80;79.00;;;;;;4957580;28;20034;-88
2023/11/04 13:42:09;;;;;;;0.10;0.10;;;13.90;79.00;;;;;;4939051;29;20027;-82
2023/11/04 13:44:34;;;;;;;0.10;0.10;;;14.00;77.70;;;;;;4960521;29;20110;-87
2023/11/04 13:47:00;;;;;;;0.10;0.10;;;13.90;78.60;;;;;;4935484;29;20572;-89
2023/11/04 13:49:31;;;;;;;0.10;0.10;;;13.80;78.60;;;;;;4940978;29;20494;-84
2023/11/04 13:51:57;;;;;;;0.10;0.10;;;13.80;78.10;;;;;;4943056;29;20019;-86
2023/11/04 13:54:23;;;;;;;0.10;0.10;;;13.80;78.30;;;;;;4960298;29;20057;-85
2023/11/04 13:56:48;;;;;;;0.10;0.10;;;13.80;77.60;;;;;;4959360;29;20088;-86
2023/11/04 13:59:14;;;;;;;0.10;0.10;;;13.80;77.80;;;;;;4960312;29;20030;-81
2023/11/04 14:01:45;;;;;;;0.10;0.10;;;13.80;78.30;;;;;;4959833;29;20046;-85
2023/11/04 14:04:10;;;;;;;0.10;0.10;;;13.80;78.80;;;;;;4958596;28;20039;-84
2023/11/04 14:06:36;;;;;;;0.10;0.10;;;13.70;77.70;;;;;;4959478;29;20066;-84
2023/11/04 14:09:02;;;;;;;0.10;0.10;;;13.50;77.00;;;;;;4959660;29;20055;-84
2023/11/04 14:11:28;;;;;;;0.10;0.10;;;13.40;77.60;;;;;;4941496;29;20031;-84
2023/11/04 14:13:53;;;;;;;0.10;0.10;;;13.20;77.40;;;;;;4958867;28;20052;-84
2023/11/04 14:16:19;;;;;;;0.10;0.10;;;13.10;77.80;;;;;;4958718;29;20034;-84
2023/11/04 14:18:46;;;;;;;0.10;0.10;;;13.10;79.60;;;;;;4953576;29;20043;-83
2023/11/04 14:21:11;;;;;;;0.10;0.10;;;13.00;80.00;;;;;;4942270;29;20031;-83
2023/11/04 14:23:37;;;;;;;0.10;0.10;;;12.80;79.10;;;;;;4958403;28;20050;-84
2023/11/04 14:26:03;;;;;;;0.17;0.17;;;12.70;80.40;;;;;;4954577;29;20039;-82
2023/11/04 14:28:29;;;;;;;0.10;0.10;;;12.60;80.60;;;;;;4942570;28;20630;-82
2023/11/04 14:30:54;;;;;;;0.10;0.10;;;12.50;81.90;;;;;;4958606;28;20067;-82
2023/11/04 14:33:20;;;;;;;0.10;0.10;;;12.40;82.30;;;;;;4969378;28;20027;-84
2023/11/04 14:35:52;;;;;;;0.10;0.10;;;12.40;83.10;;;;;;4949974;28;20031;-84
2023/11/04 14:38:18;;;;;;;0.10;0.10;;;12.40;83.00;;;;;;4977654;28;20033;-85
2023/11/04 14:40:44;;;;;;;0.10;0.10;;;12.30;83.30;;;;;;4966822;28;20485;-85
2023/11/04 14:43:09;;;;;;;0.10;0.10;;;12.30;83.30;;;;;;4968882;28;20524;-82
2023/11/04 14:45:35;;;;;;;0.00;0.00;;;12.20;83.30;;;;;;4952935;28;20026;-85
2023/11/04 14:48:00;;;;;;;0.10;0.10;;;12.20;83.80;;;;;;4967976;28;20038;-82
2023/11/04 14:50:26;;;;;;;0.10;0.10;;;12.20;84.00;;;;;;4973431;28;20030;-86
2023/11/04 14:52:52;;;;;;;0.10;0.10;;;12.20;84.00;;;;;;4969781;28;20068;-84
2023/11/04 14:55:18;;;;;;;0.10;0.10;;;12.50;83.80;;;;;;4962140;28;20023;-84
2023/11/04 14:57:47;;;;;;;0.20;0.20;;;12.70;83.70;;;;;;4966994;28;20382;-86
2023/11/04 15:00:13;;;;;;;0.10;0.10;;;12.80;83.30;;;;;;4954907;28;20039;-83
2023/11/04 15:02:43;;;;;;;0.10;0.10;;;12.80;83.30;;;;;;4967031;28;20054;-84
2023/11/04 15:05:08;;;;;;;0.10;0.10;;;12.70;83.40;;;;;;4955102;28;20027;-85
2023/11/04 15:07:35;;;;;;;0.10;0.10;;;12.70;83.10;;;;;;4968121;28;20024;-88
2023/11/04 15:10:01;;;;;;;0.10;0.10;;;12.60;83.40;;;;;;4967756;28;21561;-84
2023/11/04 15:12:26;;;;;;;0.10;0.10;;;12.50;83.40;;;;;;4963642;28;20051;-84
2023/11/04 15:14:52;;;;;;;0.10;0.10;;;12.60;83.40;;;;;;4972116;28;20029;-84
2023/11/04 15:17:18;;;;;;;0.10;0.10;;;12.60;83.70;;;;;;4970911;28;20046;-85
2023/11/04 15:19:44;;;;;;;0.10;0.10;;;12.40;83.60;;;;;;4964604;28;20027;-83
2023/11/04 15:22:09;;;;;;;0.10;0.10;;;12.30;83.90;;;;;;4972731;28;20176;-85
2023/11/04 15:24:35;;;;;;;0.03;0.03;;;12.20;84.20;;;;;;4964621;28;20031;-83
2023/11/04 15:27:03;;;;;;;0.10;0.10;;;12.20;84.40;;;;;;4965393;28;20034;-84
2023/11/04 15:29:29;;;;;;;0.10;0.10;;;12.10;84.40;;;;;;4965999;28;20038;-83
2023/11/04 15:31:55;;;;;;;0.10;0.10;;;12.00;84.80;;;;;;4974581;28;20047;-83
2023/11/04 15:34:21;;;;;;;0.10;0.10;;;12.00;85.00;;;;;;4970764;28;20034;-83
2023/11/04 15:36:46;;;;;;;0.10;0.10;;;11.90;85.20;;;;;;4966926;28;20102;-82
2023/11/04 15:39:12;;;;;;;0.10;0.10;;;11.80;85.60;;;;;;4965531;28;20028;-82
2023/11/04 15:41:38;;;;;;;0.10;0.10;;;11.80;85.80;;;;;;4964890;28;20035;-82
2023/11/04 15:44:05;;;;;;;0.15;0.10;;;11.80;86.00;;;;;;4971628;28;20033;-83
2023/11/04 15:46:31;;;;;;;0.10;0.10;;;11.90;86.10;;;;;;4972651;28;20089;-82
2023/11/04 15:48:56;;;;;;;0.10;0.10;;;11.90;85.80;;;;;;4973662;28;20058;-82
2023/11/04 15:51:22;;;;;;;0.10;0.10;;;11.90;86.00;;;;;;4958821;28;20030;-81
2023/11/04 15:53:50;;;;;;;0.10;0.10;;;11.90;86.20;;;;;;4962490;28;20023;-81
2023/11/04 15:56:16;;;;;;;0.10;0.10;;;12.00;86.10;;;;;;4964533;28;20073;-82
2023/11/04 15:58:42;;;;;;;0.10;0.10;;;12.00;86.00;;;;;;4966227;28;20027;-80
2023/11/04 16:01:07;;;;;;;0.10;0.10;;;12.10;85.80;;;;;;4977787;28;20026;-82
2023/11/04 16:03:34;;;;;;;0.10;0.10;;;12.10;85.80;;;;;;4973376;28;20042;-93
2023/11/04 16:06:00;;;;;;;0.10;0.10;;;12.10;86.00;;;;;;4946262;28;20112;-83
2023/11/04 16:08:26;;;;;;;0.10;0.10;;;12.10;86.20;;;;;;4963917;28;20514;-81
2023/11/04 16:10:53;;;;;;;0.10;0.10;;;12.10;86.20;;;;;;4969460;28;20035;-82
2023/11/04 16:13:19;;;;;;;0.20;0.20;;;12.10;86.20;;;;;;4972732;28;20046;-83
2023/11/04 16:15:45;;;;;;;0.10;0.10;;;12.10;86.40;;;;;;4956347;28;20023;-86
2023/11/04 16:18:11;;;;;;;0.10;0.10;;;12.10;86.90;;;;;;4948437;28;20150;-86
2023/11/04 16:20:36;;;;;;;0.20;0.20;;;12.00;86.70;;;;;;4951083;28;20042;-85
2023/11/04 16:23:04;;;;;;;0.10;0.10;;;12.10;86.70;;;;;;4967062;28;20037;-89
2023/11/04 16:25:29;;;;;;;0.10;0.10;;;12.10;86.80;;;;;;4965750;28;20039;-77
2023/11/04 16:27:56;;;;;;;0.10;0.10;;;12.20;86.80;;;;;;4981228;28;20081;-75
2023/11/04 16:30:21;;;;;;;0.10;0.10;;;12.20;86.60;;;;;;4964403;28;20023;-78
2023/11/04 16:32:49;;;;;;;0.10;0.10;;;12.20;86.80;;;;;;4948684;28;20019;-77
2023/11/04 16:35:15;;;;;;;0.10;0.10;;;12.20;86.60;;;;;;4962417;28;21400;-84
2023/11/04 16:37:41;;;;;;;0.10;0.10;;;12.20;86.80;;;;;;4963829;28;20019;-81
2023/11/04 16:40:08;;;;;;;0.10;0.10;;;12.20;86.70;;;;;;4969401;28;20441;-78
2023/11/04 16:42:34;;;;;;;0.10;0.10;;;12.30;86.80;;;;;;4945031;28;20027;-78
2023/11/04 16:45:00;;;;;;;0.17;0.17;;;12.30;87.00;;;;;;4967909;28;20063;-79
2023/11/04 16:47:25;;;;;;;0.10;0.10;;;12.30;87.10;;;;;;4978751;28;20157;-85
2023/11/04 16:49:51;;;;;;;0.10;0.10;;;12.20;87.20;;;;;;4955138;28;20031;-79
2023/11/04 16:52:17;;;;;;;0.10;0.10;;;12.10;87.00;;;;;;4972283;28;20462;-77
2023/11/04 16:54:42;;;;;;;0.10;0.10;;;12.00;87.00;;;;;;4960546;28;20090;-78
2023/11/04 16:57:08;;;;;;;0.10;0.10;;;12.00;87.10;;;;;;4965252;28;20023;-77
2023/11/04 16:59:34;;;;;;;0.10;0.10;;;11.90;86.90;;;;;;4960290;28;20030;-77
2023/11/04 17:02:00;;;;;;;0.10;0.10;;;11.90;87.20;;;;;;4967772;28;20030;-79
2023/11/04 17:04:25;;;;;;;0.10;0.10;;;12.00;86.90;;;;;;4967955;28;20041;-83
2023/11/04 17:06:51;;;;;;;0.20;0.20;;;11.90;86.80;;;;;;4947093;28;20046;-75
2023/11/04 17:09:18;;;;;;;0.10;0.10;;;11.80;86.90;;;;;;4970132;28;20041;-75
2023/11/04 17:11:44;;;;;;;0.10;0.10;;;11.70;87.10;;;;;;4965437;28;20456;-74
2023/11/04 17:14:10;;;;;;;0.10;0.10;;;11.70;87.30;;;;;;4976519;28;20049;-74
2023/11/04 17:16:36;;;;;;;0.10;0.10;;;11.70;87.40;;;;;;4950391;28;20063;-76
2023/11/04 17:19:01;;;;;;;0.10;0.10;;;11.60;87.40;;;;;;4962346;28;20833;-76
2023/11/04 17:21:27;;;;;;;0.10;0.10;;;11.60;87.60;;;;;;4961451;28;20066;-76
2023/11/04 17:23:52;;;;;;;0.10;0.10;;;11.60;87.60;;;;;;4978749;28;20057;-75
2023/11/04 17:26:18;;;;;;;0.10;0.10;;;11.60;87.60;;;;;;4953955;28;20041;-75
2023/11/04 17:28:44;;;;;;;0.10;0.10;;;11.60;87.60;;;;;;4975495;28;20050;-76
2023/11/04 17:31:10;;;;;;;0.10;0.10;;;11.70;87.50;;;;;;4976772;28;20047;-76
2023/11/04 17:33:35;;;;;;;0.20;0.20;;;11.70;87.50;;;;;;4983131;28;20080;-76
2023/11/04 17:36:05;;;;;;;0.10;0.10;;;11.60;87.70;;;;;;4971158;28;20023;-76
2023/11/04 17:38:31;;;;;;;0.10;0.10;;;11.60;87.70;;;;;;4975483;28;20025;-75
2023/11/04 17:40:57;;;;;;;0.10;0.10;;;11.60;87.50;;;;;;4961908;28;20030;-73
2023/11/04 17:43:24;;;;;;;0.10;0.10;;;11.60;87.20;;;;;;4976917;28;20030;-73
2023/11/04 17:45:50;;;;;;;0.10;0.10;;;11.60;87.40;;;;;;4968770;28;20051;-74
2023/11/04 17:48:16;;;;;;;0.10;0.10;;;11.60;87.30;;;;;;4974209;28;20082;-74
2023/11/04 17:50:42;;;;;;;0.10;0.10;;;11.60;87.20;;;;;;4977396;28;20027;-74
2023/11/04 17:53:08;;;;;;;0.10;0.10;;;11.60;87.30;;;;;;4965543;28;20817;-74
2023/11/04 17:55:34;;;;;;;0.10;0.10;;;11.60;87.20;;;;;;4968824;28;20460;-74
2023/11/04 17:57:59;;;;;;;0.10;0.10;;;11.50;87.20;;;;;;4960581;28;20051;-72
2023/11/04 18:00:26;;;;;;;0.10;0.10;;;11.50;87.50;;;;;;4966931;28;20026;-72
2023/11/04 18:02:51;;;;;;;0.17;0.17;;;11.60;87.50;;;;;;4974970;28;20070;-74
2023/11/04 18:05:17;;;;;;;0.10;0.10;;;11.50;87.30;;;;;;4964430;28;20031;-72
2023/11/04 18:07:43;;;;;;;0.13;0.13;;;11.50;87.50;;;;;;4959167;28;20030;-72
2023/11/04 18:10:09;;;;;;;0.20;0.20;;;11.60;87.50;;;;;;4969128;28;20573;-74
2023/11/04 18:12:34;;;;;;;0.10;0.10;;;11.60;87.40;;;;;;4962959;28;20050;-72
2023/11/04 18:15:00;;;;;;;0.10;0.10;;;11.60;87.50;;;;;;4953339;28;20026;-72